Time;durP1;ratioP1;P1;durP2;ratioP2;P2;SDS_P1;SDS_P2;PMS_P1;PMS_P2;Temp;Humidity;BMP_temperature;BMP_pressure;BME280_temperature;BME280_humidity;BME280_pressure;Samples;Min_cycle;Max_cycle;Signal;HPM_P1;HPM_P2
2023/04/08 00:01:06;;;;;;;116.18;13.15;;;9.30;99.90;;;;;;6192145;23;20335;-88
2023/04/08 00:03:32;;;;;;;60.38;11.80;;;9.30;99.90;;;;;;6166005;23;20416;-88
2023/04/08 00:05:59;;;;;;;37.15;10.82;;;9.30;99.90;;;;;;6166273;23;20009;-89
2023/04/08 00:08:25;;;;;;;74.95;11.75;;;9.20;99.90;;;;;;6194214;23;20030;-89
2023/04/08 00:10:51;;;;;;;40.97;10.95;;;9.20;99.90;;;;;;6169128;23;20063;-89
2023/04/08 00:13:16;;;;;;;45.10;12.05;;;9.20;99.90;;;;;;6194802;23;20004;-89
2023/04/08 00:15:42;;;;;;;29.88;11.68;;;9.20;99.90;;;;;;6190991;23;20012;-93
2023/04/08 00:18:08;;;;;;;44.35;11.27;;;9.20;99.90;;;;;;6192661;23;20005;-92
2023/04/08 00:20:33;;;;;;;25.25;12.00;;;9.10;99.90;;;;;;6166739;23;20035;-93
2023/04/08 00:22:59;;;;;;;36.55;11.52;;;9.10;99.90;;;;;;6193438;23;20008;-92
2023/04/08 00:25:25;;;;;;;41.65;10.98;;;9.10;99.90;;;;;;6194384;23;20001;-93
2023/04/08 00:27:51;;;;;;;39.25;11.38;;;9.10;99.90;;;;;;6192273;23;20015;-92
2023/04/08 00:30:17;;;;;;;78.40;11.95;;;9.00;99.90;;;;;;6191405;23;20008;-93
2023/04/08 00:32:43;;;;;;;32.90;11.50;;;9.00;99.90;;;;;;6192265;23;20015;-93
2023/04/08 00:35:09;;;;;;;24.23;10.85;;;9.00;99.90;;;;;;6194586;23;20028;-93
2023/04/08 00:37:35;;;;;;;18.27;10.82;;;8.90;99.90;;;;;;6193889;23;20000;-92
2023/04/08 00:40:00;;;;;;;32.25;12.10;;;8.90;99.90;;;;;;6194356;23;20028;-94
2023/04/08 00:42:26;;;;;;;40.85;10.77;;;8.90;99.90;;;;;;6193956;23;20015;-94
2023/04/08 00:44:52;;;;;;;56.80;12.25;;;8.80;99.90;;;;;;6191138;23;20008;-94
2023/04/08 00:47:19;;;;;;;29.58;11.85;;;8.80;99.90;;;;;;6167681;23;20027;-95
2023/04/08 00:49:45;;;;;;;46.85;11.23;;;8.80;99.90;;;;;;6167644;23;20005;-87
2023/04/08 00:52:10;;;;;;;31.85;11.07;;;8.80;99.90;;;;;;6167279;23;20011;-88
2023/04/08 00:54:37;;;;;;;27.70;11.55;;;8.80;99.90;;;;;;6192004;23;20013;-88
2023/04/08 00:57:04;;;;;;;69.55;12.82;;;8.70;99.90;;;;;;6191990;23;20397;-89
2023/04/08 00:59:30;;;;;;;20.88;11.20;;;8.70;99.90;;;;;;6192548;23;20015;-89
2023/04/08 01:02:14;;;;;;;48.30;11.93;;;8.70;99.90;;;;;;6167297;23;20225;-89
2023/04/08 01:04:46;;;;;;;36.45;11.10;;;8.70;99.90;;;;;;6192066;23;20004;-89
2023/04/08 01:07:11;;;;;;;48.45;12.27;;;8.70;99.90;;;;;;6193718;23;20001;-92
2023/04/08 01:09:39;;;;;;;41.38;11.55;;;8.60;99.90;;;;;;6193717;23;20008;-93
2023/04/08 01:12:08;;;;;;;51.15;12.52;;;8.60;99.90;;;;;;6193401;23;19997;-93
2023/04/08 01:14:38;;;;;;;46.08;12.25;;;8.60;99.90;;;;;;6192652;23;19996;-93
2023/04/08 01:17:05;;;;;;;38.67;12.13;;;8.60;99.90;;;;;;6193641;23;20000;-94
2023/04/08 01:19:38;;;;;;;34.78;12.95;;;8.60;99.90;;;;;;6193135;23;20003;-92
2023/04/08 01:22:27;;;;;;;25.80;11.48;;;8.60;99.90;;;;;;6193098;23;20011;-93
2023/04/08 01:25:01;;;;;;;15.70;10.10;;;8.60;99.90;;;;;;6174365;23;20424;-93
2023/04/08 01:27:31;;;;;;;40.72;12.32;;;8.60;99.90;;;;;;6192861;23;20004;-93
2023/04/08 01:29:58;;;;;;;30.63;11.32;;;8.50;99.90;;;;;;6201218;23;20001;-94
2023/04/08 01:32:26;;;;;;;44.25;11.75;;;8.60;99.90;;;;;;6193267;23;20023;-94
2023/04/08 01:34:53;;;;;;;26.40;12.05;;;8.50;99.90;;;;;;6193056;23;20079;-93
2023/04/08 01:37:20;;;;;;;19.63;10.95;;;8.50;99.90;;;;;;6193449;23;20004;-92
2023/04/08 01:39:48;;;;;;;23.33;11.77;;;8.50;99.90;;;;;;6193212;23;20020;-91
2023/04/08 01:42:14;;;;;;;26.85;11.18;;;8.50;99.90;;;;;;6192279;23;20008;-91
2023/04/08 01:44:41;;;;;;;19.48;11.23;;;8.50;99.90;;;;;;6192319;23;20063;-91
2023/04/08 01:47:09;;;;;;;27.40;11.20;;;8.50;99.90;;;;;;6191886;23;20059;-92
2023/04/08 01:49:36;;;;;;;33.15;12.15;;;8.50;99.90;;;;;;6192209;23;20424;-91
2023/04/08 01:52:03;;;;;;;24.92;11.40;;;8.50;99.90;;;;;;6191691;23;20039;-92
2023/04/08 01:54:29;;;;;;;22.55;11.85;;;8.50;99.90;;;;;;6191925;23;20001;-92
2023/04/08 01:56:58;;;;;;;26.70;11.55;;;8.40;99.90;;;;;;6192942;23;20063;-93
2023/04/08 01:59:30;;;;;;;40.08;12.23;;;8.50;99.90;;;;;;6193188;23;20447;-94
2023/04/08 02:01:56;;;;;;;38.50;11.80;;;8.40;99.90;;;;;;6194607;23;20003;-93
2023/04/08 02:04:22;;;;;;;25.75;10.48;;;8.40;99.90;;;;;;6193093;23;20059;-93
2023/04/08 02:06:49;;;;;;;17.90;10.27;;;8.40;99.90;;;;;;6193433;23;20005;-92
2023/04/08 02:09:14;;;;;;;54.58;11.88;;;8.40;99.90;;;;;;6194042;23;20040;-94
2023/04/08 02:11:40;;;;;;;22.73;10.27;;;8.30;99.90;;;;;;6193965;23;20315;-90
2023/04/08 02:14:06;;;;;;;49.38;11.93;;;8.30;99.90;;;;;;6167123;23;20038;-89
2023/04/08 02:16:58;;;;;;;56.83;10.40;;;8.30;99.90;;;;;;6192421;23;20019;-92
2023/04/08 02:19:29;;;;;;;77.97;11.05;;;8.30;99.90;;;;;;6195924;23;20084;-94
2023/04/08 02:22:04;;;;;;;90.57;10.32;;;8.30;99.90;;;;;;6195235;23;20324;-91
2023/04/08 02:24:32;;;;;;;76.55;11.32;;;8.20;99.90;;;;;;6194587;23;20020;-92
2023/04/08 02:27:00;;;;;;;62.95;9.48;;;8.20;99.90;;;;;;6193492;23;20011;-93
2023/04/08 02:29:30;;;;;;;49.10;9.68;;;8.20;99.90;;;;;;6199316;23;20033;-92
2023/04/08 02:31:56;;;;;;;39.13;10.20;;;8.20;99.90;;;;;;6200882;23;20008;-91
2023/04/08 02:34:24;;;;;;;18.90;8.98;;;8.10;99.90;;;;;;6199927;23;20020;-92
2023/04/08 02:36:50;;;;;;;47.28;9.63;;;8.10;99.90;;;;;;6169201;23;20005;-91
2023/04/08 02:39:16;;;;;;;25.17;9.02;;;8.10;99.90;;;;;;6195213;23;20039;-91
2023/04/08 02:41:42;;;;;;;17.98;8.80;;;8.00;99.90;;;;;;6172852;23;20031;-92
2023/04/08 02:44:09;;;;;;;22.55;9.25;;;8.00;99.90;;;;;;6183041;23;20059;-89
2023/04/08 02:46:35;;;;;;;27.33;9.32;;;8.00;99.90;;;;;;6193767;23;20438;-92
2023/04/08 02:49:00;;;;;;;28.42;9.60;;;8.00;99.90;;;;;;6195836;23;20091;-93
2023/04/08 02:51:26;;;;;;;17.77;9.57;;;7.90;99.90;;;;;;6170098;23;20000;-93
2023/04/08 02:53:52;;;;;;;18.70;9.75;;;7.90;99.90;;;;;;6170148;23;20372;-92
2023/04/08 02:56:18;;;;;;;18.48;9.27;;;7.80;99.90;;;;;;6195358;23;20008;-92
2023/04/08 02:58:44;;;;;;;20.10;10.00;;;7.80;99.90;;;;;;6194188;23;20014;-92
2023/04/08 03:01:10;;;;;;;24.45;9.88;;;7.80;99.90;;;;;;6195202;23;20004;-92
2023/04/08 03:03:36;;;;;;;15.00;9.88;;;7.70;99.90;;;;;;6175419;23;20094;-93
2023/04/08 03:06:02;;;;;;;14.98;9.23;;;7.70;99.90;;;;;;6196225;23;20004;-94
2023/04/08 03:08:27;;;;;;;19.58;10.32;;;7.70;99.90;;;;;;6193819;23;20013;-91
2023/04/08 03:10:53;;;;;;;19.70;10.70;;;7.60;99.90;;;;;;6198694;23;20028;-94
2023/04/08 03:13:19;;;;;;;22.98;10.45;;;7.60;99.90;;;;;;6204425;23;20004;-94
2023/04/08 03:15:45;;;;;;;25.45;10.68;;;7.60;99.90;;;;;;6204336;23;20080;-93
2023/04/08 03:18:11;;;;;;;17.27;10.00;;;7.50;99.90;;;;;;6191719;23;20335;-95
2023/04/08 03:20:36;;;;;;;24.80;10.60;;;7.50;99.90;;;;;;6191753;23;20009;-92
2023/04/08 03:23:02;;;;;;;16.98;10.10;;;7.50;99.90;;;;;;6192032;23;20001;-93
2023/04/08 03:25:28;;;;;;;23.30;11.32;;;7.50;99.90;;;;;;6167424;23;20095;-94
2023/04/08 03:27:54;;;;;;;14.73;10.15;;;7.40;99.90;;;;;;6167829;23;20336;-94
2023/04/08 03:30:20;;;;;;;67.38;11.75;;;7.40;99.90;;;;;;6192729;23;20016;-94
2023/04/08 03:32:46;;;;;;;58.22;11.52;;;7.40;99.90;;;;;;6171734;23;20016;-93
2023/04/08 03:35:11;;;;;;;49.30;11.38;;;7.40;99.90;;;;;;6202824;23;20070;-90
2023/04/08 03:37:38;;;;;;;26.13;10.18;;;7.40;99.90;;;;;;6190646;23;20146;-90
2023/04/08 03:40:04;;;;;;;23.08;10.50;;;7.40;99.90;;;;;;6190399;23;20007;-88
2023/04/08 03:42:29;;;;;;;34.72;10.10;;;7.30;99.90;;;;;;6190625;23;20008;-89
2023/04/08 03:44:56;;;;;;;34.17;10.75;;;7.30;99.90;;;;;;6190894;23;20428;-88
2023/04/08 03:47:21;;;;;;;42.42;10.90;;;7.30;99.90;;;;;;6193179;23;20012;-94
2023/04/08 03:49:47;;;;;;;19.45;10.20;;;7.30;99.90;;;;;;6201801;23;20038;-93
2023/04/08 03:52:13;;;;;;;14.55;10.20;;;7.20;99.90;;;;;;6173662;23;20412;-89
2023/04/08 03:54:39;;;;;;;14.57;10.38;;;7.20;99.90;;;;;;6191444;23;20072;-89
2023/04/08 03:57:04;;;;;;;13.55;9.65;;;7.20;99.90;;;;;;6166016;23;20001;-88
2023/04/08 03:59:30;;;;;;;14.30;9.77;;;7.20;99.90;;;;;;6191297;23;20004;-94
2023/04/08 04:01:56;;;;;;;14.15;9.50;;;7.10;99.90;;;;;;6166390;23;20332;-93
2023/04/08 04:04:23;;;;;;;14.15;10.05;;;7.10;99.90;;;;;;6166669;23;20004;-93
2023/04/08 04:06:48;;;;;;;14.90;9.98;;;7.10;99.90;;;;;;6192740;23;20157;-94
2023/04/08 04:09:15;;;;;;;13.05;9.75;;;7.00;99.90;;;;;;6202965;23;20005;-93
2023/04/08 04:11:41;;;;;;;11.40;9.00;;;7.00;99.90;;;;;;6190993;23;20004;-93
2023/04/08 04:14:07;;;;;;;13.57;9.75;;;6.90;99.90;;;;;;6191075;23;20082;-94
2023/04/08 04:16:32;;;;;;;11.90;9.15;;;6.90;99.90;;;;;;6166520;23;20004;-92
2023/04/08 04:18:58;;;;;;;13.30;9.30;;;6.90;99.90;;;;;;6191331;23;20015;-93
2023/04/08 04:21:33;;;;;;;15.13;10.35;;;6.90;99.90;;;;;;6192235;23;20004;-92
2023/04/08 04:27:08;;;;;;;13.07;9.80;;;6.80;99.90;;;;;;6220597;23;20066;-93
2023/04/08 04:29:34;;;;;;;11.80;8.88;;;6.80;99.90;;;;;;6195573;23;20084;-93
2023/04/08 04:32:00;;;;;;;12.77;9.43;;;6.70;99.90;;;;;;6193119;23;20446;-94
2023/04/08 04:34:26;;;;;;;13.20;10.20;;;6.70;99.90;;;;;;6168641;23;20004;-95
2023/04/08 04:36:51;;;;;;;14.50;9.80;;;6.70;99.90;;;;;;6192908;23;20019;-94
2023/04/08 04:39:17;;;;;;;13.57;9.68;;;6.60;99.90;;;;;;6192674;23;20309;-94
2023/04/08 04:41:46;;;;;;;14.52;9.50;;;6.60;99.90;;;;;;6192831;23;20011;-95
2023/04/08 04:44:12;;;;;;;13.38;9.32;;;6.60;99.90;;;;;;6176845;23;20001;-94
2023/04/08 04:46:37;;;;;;;14.30;10.30;;;6.50;99.90;;;;;;6193228;23;20015;-93
2023/04/08 04:49:03;;;;;;;12.43;9.10;;;6.50;99.90;;;;;;6193281;23;20099;-92
2023/04/08 04:51:32;;;;;;;14.93;10.52;;;6.50;99.90;;;;;;6192373;23;20023;-88
2023/04/08 04:53:57;;;;;;;15.85;10.60;;;6.40;99.90;;;;;;6192277;23;20004;-89
2023/04/08 04:56:25;;;;;;;12.90;9.77;;;6.40;99.90;;;;;;6192246;23;20013;-89
2023/04/08 04:58:53;;;;;;;14.05;10.35;;;6.40;99.90;;;;;;6191351;23;20009;-93
2023/04/08 05:01:25;;;;;;;12.60;9.48;;;6.30;99.90;;;;;;6196971;23;20000;-94
2023/04/08 05:03:51;;;;;;;13.73;9.63;;;6.30;99.90;;;;;;6193678;23;20004;-93
2023/04/08 05:06:16;;;;;;;12.52;9.10;;;6.30;99.90;;;;;;6194301;23;20078;-92
2023/04/08 05:08:43;;;;;;;10.32;8.00;;;6.30;99.90;;;;;;6193397;23;20008;-93
2023/04/08 05:11:11;;;;;;;10.10;7.45;;;6.20;99.90;;;;;;6192759;23;20032;-93
2023/04/08 05:13:37;;;;;;;11.93;8.38;;;6.20;99.90;;;;;;6193018;23;20028;-93
2023/04/08 05:16:03;;;;;;;11.48;8.27;;;6.20;99.90;;;;;;6193902;23;20058;-93
2023/04/08 05:18:31;;;;;;;12.73;9.23;;;6.10;99.90;;;;;;6170357;23;20005;-93
2023/04/08 05:20:57;;;;;;;9.77;6.93;;;6.10;99.90;;;;;;6196089;23;20004;-93
2023/04/08 05:23:23;;;;;;;9.35;6.78;;;6.10;99.90;;;;;;6193332;23;20004;-93
2023/04/08 05:25:49;;;;;;;11.23;7.13;;;6.10;99.90;;;;;;6167586;23;20008;-93
2023/04/08 05:28:15;;;;;;;9.50;6.80;;;6.00;99.90;;;;;;6192517;23;20012;-92
2023/04/08 05:30:51;;;;;;;7.70;5.63;;;6.00;99.90;;;;;;6193051;23;20481;-92
2023/04/08 05:33:17;;;;;;;11.05;6.60;;;6.00;99.90;;;;;;6191966;23;20008;-94
2023/04/08 05:35:43;;;;;;;11.00;5.72;;;6.00;99.90;;;;;;6192660;23;20079;-94
2023/04/08 05:38:09;;;;;;;11.50;7.03;;;6.00;99.90;;;;;;6193775;23;20008;-94
2023/04/08 05:40:34;;;;;;;9.50;6.65;;;5.90;99.90;;;;;;6169797;23;20035;-94
2023/04/08 05:43:00;;;;;;;38.95;8.13;;;5.90;99.90;;;;;;6168387;23;20051;-93
2023/04/08 05:45:27;;;;;;;13.13;7.32;;;5.90;99.90;;;;;;6192804;23;20091;-93
2023/04/08 05:47:53;;;;;;;14.70;8.20;;;5.90;99.90;;;;;;6165925;23;20017;-93
2023/04/08 05:50:19;;;;;;;10.63;8.02;;;5.90;99.90;;;;;;6192979;23;20023;-93
2023/04/08 05:52:45;;;;;;;12.30;8.85;;;5.90;99.90;;;;;;6192149;23;20040;-93
2023/04/08 05:55:12;;;;;;;12.00;8.57;;;5.90;99.90;;;;;;6192000;23;20016;-93
2023/04/08 05:57:40;;;;;;;12.40;8.43;;;5.90;99.90;;;;;;6192228;23;20001;-93
2023/04/08 06:00:08;;;;;;;14.75;9.73;;;5.90;99.90;;;;;;6191960;23;20004;-93
2023/04/08 06:02:41;;;;;;;15.38;9.07;;;5.90;99.90;;;;;;6192365;23;20004;-94
2023/04/08 06:05:10;;;;;;;13.95;9.95;;;5.90;99.90;;;;;;6167625;23;20013;-94
2023/04/08 06:07:36;;;;;;;13.60;10.30;;;5.90;99.90;;;;;;6193750;23;20016;-92
2023/04/08 06:10:02;;;;;;;14.13;10.38;;;6.00;99.90;;;;;;6167362;23;20008;-93
2023/04/08 06:12:27;;;;;;;14.40;10.88;;;6.00;99.90;;;;;;6191655;23;20431;-93
2023/04/08 06:14:56;;;;;;;14.98;10.57;;;6.00;99.90;;;;;;6191724;23;20016;-90
2023/04/08 06:17:22;;;;;;;14.88;11.43;;;6.00;99.90;;;;;;6192057;23;20423;-89
2023/04/08 06:19:48;;;;;;;16.85;12.43;;;6.00;99.90;;;;;;6191828;23;20043;-88
2023/04/08 06:22:14;;;;;;;18.33;11.95;;;6.00;99.90;;;;;;6181022;23;20009;-93
2023/04/08 06:24:40;;;;;;;17.15;12.48;;;6.00;99.90;;;;;;6198004;23;20007;-92
2023/04/08 06:27:06;;;;;;;19.90;12.93;;;6.10;99.90;;;;;;6174530;23;20072;-94
2023/04/08 06:29:32;;;;;;;16.25;11.82;;;6.10;99.90;;;;;;6197291;23;20011;-92
2023/04/08 06:31:58;;;;;;;14.20;10.10;;;6.10;99.90;;;;;;6196739;23;20053;-92
2023/04/08 06:34:24;;;;;;;13.95;10.25;;;6.10;99.90;;;;;;6197437;23;20335;-92
2023/04/08 06:36:50;;;;;;;14.27;10.60;;;6.10;99.90;;;;;;6195636;23;20004;-92
2023/04/08 06:39:15;;;;;;;15.70;11.15;;;6.10;99.90;;;;;;6196992;23;20007;-93
2023/04/08 06:41:45;;;;;;;15.88;11.75;;;6.10;99.90;;;;;;6196631;23;20013;-93
2023/04/08 06:44:10;;;;;;;16.08;12.05;;;6.10;99.90;;;;;;6199285;23;20151;-94
2023/04/08 06:46:39;;;;;;;17.77;12.85;;;6.10;99.90;;;;;;6203605;23;19992;-92
2023/04/08 06:49:05;;;;;;;19.90;12.57;;;6.20;99.90;;;;;;6215489;23;20023;-93
2023/04/08 06:51:31;;;;;;;18.75;13.15;;;6.20;99.90;;;;;;6179777;23;20090;-92
2023/04/08 06:53:57;;;;;;;17.45;12.77;;;6.20;99.90;;;;;;6208052;23;19993;-92
2023/04/08 06:56:25;;;;;;;20.10;13.88;;;6.30;99.90;;;;;;6204437;23;20008;-93
2023/04/08 06:58:52;;;;;;;19.05;14.15;;;6.30;99.90;;;;;;6227246;23;19996;-91
2023/04/08 07:01:19;;;;;;;20.13;13.90;;;6.30;99.90;;;;;;6202548;23;20015;-93
2023/04/08 07:03:47;;;;;;;25.27;17.55;;;6.40;99.90;;;;;;6201485;23;20056;-92
2023/04/08 07:06:13;;;;;;;27.15;17.52;;;6.40;99.90;;;;;;6192030;23;20035;-94
2023/04/08 07:08:39;;;;;;;25.33;18.08;;;6.50;99.90;;;;;;6192085;23;20005;-94
2023/04/08 07:11:05;;;;;;;24.67;17.38;;;6.60;99.90;;;;;;6191275;23;20332;-94
2023/04/08 07:13:31;;;;;;;28.67;18.42;;;6.60;99.90;;;;;;6191292;23;20088;-93
2023/04/08 07:15:56;;;;;;;22.05;15.25;;;6.70;99.90;;;;;;6191280;23;20099;-92
2023/04/08 07:18:22;;;;;;;23.52;16.45;;;6.70;99.90;;;;;;6166202;23;20005;-90
2023/04/08 07:20:52;;;;;;;20.77;15.77;;;6.70;99.90;;;;;;6191429;23;20001;-91
2023/04/08 07:23:19;;;;;;;22.63;15.57;;;6.80;99.90;;;;;;6191462;23;20001;-90
2023/04/08 07:25:45;;;;;;;17.60;13.77;;;6.80;99.90;;;;;;6191632;23;20008;-90
2023/04/08 07:28:11;;;;;;;20.17;13.95;;;6.90;99.90;;;;;;6191197;23;20010;-90
2023/04/08 07:30:37;;;;;;;19.63;14.20;;;6.90;99.90;;;;;;6193078;23;20091;-94
2023/04/08 07:33:03;;;;;;;19.88;13.90;;;7.00;99.90;;;;;;6193876;23;20124;-93
2023/04/08 07:35:30;;;;;;;19.77;14.00;;;7.00;99.90;;;;;;6191677;23;20344;-95
2023/04/08 07:37:59;;;;;;;20.20;13.40;;;7.10;99.90;;;;;;6192718;23;20001;-93
2023/04/08 07:40:25;;;;;;;18.77;13.77;;;7.10;99.90;;;;;;6193613;23;20008;-93
2023/04/08 07:42:51;;;;;;;18.83;13.48;;;7.20;99.90;;;;;;6173372;23;20001;-92
2023/04/08 07:45:17;;;;;;;20.70;14.15;;;7.20;99.90;;;;;;6182652;23;20012;-93
2023/04/08 07:47:43;;;;;;;18.05;14.40;;;7.30;99.90;;;;;;6191289;23;20008;-93
2023/04/08 07:50:09;;;;;;;18.45;13.48;;;7.40;99.90;;;;;;6191809;23;20005;-93
2023/04/08 07:52:36;;;;;;;16.90;12.65;;;7.40;99.90;;;;;;6166598;23;20008;-92
2023/04/08 07:55:02;;;;;;;16.85;12.38;;;7.50;99.90;;;;;;6166816;23;20015;-93
2023/04/08 07:57:28;;;;;;;18.65;13.13;;;7.60;99.90;;;;;;6218948;23;20004;-92
2023/04/08 07:59:54;;;;;;;15.32;11.82;;;7.70;99.90;;;;;;6193536;23;20373;-92
2023/04/08 08:02:20;;;;;;;16.38;12.65;;;7.80;99.90;;;;;;6192874;23;20054;-90
2023/04/08 08:04:46;;;;;;;16.55;12.48;;;7.90;99.90;;;;;;6192935;23;20008;-91
2023/04/08 08:07:11;;;;;;;17.08;12.20;;;8.00;99.90;;;;;;6192905;23;20005;-91
2023/04/08 08:09:37;;;;;;;15.95;11.75;;;8.10;99.90;;;;;;6168331;23;20039;-93
2023/04/08 08:12:03;;;;;;;14.48;11.25;;;8.10;99.90;;;;;;6168129;23;20009;-93
2023/04/08 08:14:29;;;;;;;16.15;12.38;;;8.20;99.90;;;;;;6192541;23;20113;-94
2023/04/08 08:16:55;;;;;;;15.43;11.63;;;8.30;99.90;;;;;;6194491;23;20289;-91
2023/04/08 08:19:21;;;;;;;14.57;11.85;;;8.40;99.90;;;;;;6192951;23;20005;-93
2023/04/08 08:21:52;;;;;;;13.85;10.55;;;8.50;99.90;;;;;;6193451;23;20012;-92
2023/04/08 08:24:18;;;;;;;14.85;11.23;;;8.60;99.90;;;;;;6168039;23;20100;-92
2023/04/08 08:26:45;;;;;;;13.35;10.98;;;8.60;99.90;;;;;;6192806;23;20004;-92
2023/04/08 08:29:11;;;;;;;16.77;12.90;;;8.70;99.90;;;;;;6168914;23;20096;-92
2023/04/08 08:31:37;;;;;;;15.32;11.55;;;8.80;99.90;;;;;;6193550;23;20008;-93
2023/04/08 08:34:02;;;;;;;15.77;12.05;;;8.90;99.90;;;;;;6169865;23;20012;-91
2023/04/08 08:36:28;;;;;;;14.65;10.63;;;9.00;99.90;;;;;;6171357;23;20009;-94
2023/04/08 08:38:54;;;;;;;12.82;10.43;;;9.10;99.90;;;;;;6197206;23;20001;-94
2023/04/08 08:41:20;;;;;;;13.00;9.43;;;9.20;99.90;;;;;;6197752;23;20004;-94
2023/04/08 08:43:47;;;;;;;14.25;10.20;;;9.30;99.90;;;;;;6196171;23;20033;-94
2023/04/08 08:46:16;;;;;;;12.10;10.00;;;9.30;99.90;;;;;;6193073;23;20011;-93
2023/04/08 08:48:42;;;;;;;13.73;9.85;;;9.40;99.90;;;;;;6193382;23;20327;-93
2023/04/08 08:51:11;;;;;;;13.45;8.73;;;9.40;99.90;;;;;;6192858;23;20015;-92
2023/04/08 08:53:37;;;;;;;11.65;8.55;;;9.50;99.90;;;;;;6192658;23;20004;-90
2023/04/08 08:56:07;;;;;;;10.27;8.82;;;9.60;99.90;;;;;;6167705;23;20451;-90
2023/04/08 08:58:33;;;;;;;11.18;9.07;;;9.60;99.90;;;;;;6195095;23;19984;-88
2023/04/08 09:00:59;;;;;;;10.82;8.27;;;9.70;99.90;;;;;;6212074;23;20005;-88
2023/04/08 09:03:26;;;;;;;12.25;10.02;;;9.80;99.90;;;;;;6211595;23;20004;-89
2023/04/08 09:05:57;;;;;;;11.10;9.25;;;9.90;99.90;;;;;;6184604;23;20035;-89
2023/04/08 09:08:31;;;;;;;11.27;9.00;;;10.00;99.90;;;;;;6208470;23;20043;-88
2023/04/08 09:11:17;;;;;;;11.40;9.30;;;10.10;99.90;;;;;;6195757;23;20012;-91
2023/04/08 09:13:45;;;;;;;13.65;9.40;;;10.20;99.90;;;;;;6197981;23;20032;-91
2023/04/08 09:16:15;;;;;;;10.82;8.50;;;10.30;99.90;;;;;;6205527;23;20371;-90
2023/04/08 09:18:43;;;;;;;12.30;8.75;;;10.30;99.90;;;;;;6207051;23;20031;-91
2023/04/08 09:21:10;;;;;;;11.55;9.20;;;10.40;99.90;;;;;;6210952;23;20008;-91
2023/04/08 09:23:39;;;;;;;14.52;8.82;;;10.50;99.90;;;;;;6183475;23;20008;-91
2023/04/08 09:26:11;;;;;;;11.55;8.65;;;10.50;99.90;;;;;;6197312;23;20088;-93
2023/04/08 09:28:38;;;;;;;11.93;8.90;;;10.60;99.90;;;;;;6192485;23;20015;-89
2023/04/08 09:31:40;;;;;;;11.25;9.38;;;10.60;99.90;;;;;;6191622;23;20012;-90
2023/04/08 09:34:15;;;;;;;11.50;8.60;;;10.70;99.90;;;;;;6154670;23;20423;-91
2023/04/08 09:36:41;;;;;;;10.88;9.02;;;10.80;99.90;;;;;;6191718;23;20420;-90
2023/04/08 09:39:07;;;;;;;11.25;9.15;;;10.90;99.90;;;;;;6191810;23;20100;-92
2023/04/08 09:41:34;;;;;;;14.73;10.88;;;10.90;99.90;;;;;;6192073;23;20015;-91
2023/04/08 09:44:13;;;;;;;11.93;9.40;;;11.00;99.90;;;;;;6212206;23;20042;-95
2023/04/08 09:47:07;;;;;;;12.30;9.52;;;11.10;99.90;;;;;;6237440;23;20028;-93
2023/04/08 09:49:52;;;;;;;14.95;10.43;;;11.20;99.90;;;;;;6181889;23;20314;-93
2023/04/08 09:52:32;;;;;;;13.45;9.98;;;11.30;99.90;;;;;;6174175;23;20001;-96
2023/04/08 09:55:03;;;;;;;11.80;9.55;;;11.40;99.90;;;;;;6200902;23;20001;-90
2023/04/08 09:57:45;;;;;;;14.02;10.00;;;11.60;99.90;;;;;;6163710;23;20008;-91
2023/04/08 10:00:16;;;;;;;11.15;9.88;;;11.60;99.90;;;;;;6163169;23;20103;-92
2023/04/08 10:02:55;;;;;;;13.65;10.23;;;11.70;99.90;;;;;;6139463;23;20001;-91
2023/04/08 10:05:23;;;;;;;12.00;9.10;;;11.80;99.90;;;;;;6161499;23;20008;-89
2023/04/08 10:07:51;;;;;;;11.93;9.77;;;11.90;99.90;;;;;;6161742;23;20013;-89
2023/04/08 10:10:23;;;;;;;13.68;9.90;;;12.00;99.90;;;;;;6161403;23;20075;-90
2023/04/08 10:12:49;;;;;;;11.80;9.80;;;12.00;99.90;;;;;;6162528;23;20059;-90
2023/04/08 10:15:25;;;;;;;14.43;10.10;;;12.10;99.90;;;;;;6137474;23;20013;-91
2023/04/08 10:17:52;;;;;;;12.65;9.10;;;12.20;99.90;;;;;;6161095;23;20080;-90
2023/04/08 10:20:33;;;;;;;14.60;9.93;;;12.40;99.90;;;;;;6161680;23;20001;-90
2023/04/08 10:23:00;;;;;;;;;;;12.40;99.90;;;;;;6163144;23;20055;-90
2023/04/08 10:25:35;;;;;;;11.52;9.00;;;12.50;99.90;;;;;;6187870;23;19911;-90
2023/04/08 10:28:22;;;;;;;11.52;10.05;;;12.60;99.90;;;;;;6163383;23;20009;-90
2023/04/08 10:30:55;;;;;;;12.57;9.10;;;12.70;99.90;;;;;;6168834;23;20005;-90
2023/04/08 10:33:34;;;;;;;15.13;9.85;;;12.80;99.90;;;;;;6165615;23;20043;-91
2023/04/08 10:36:10;;;;;;;10.93;9.02;;;12.90;99.90;;;;;;6161911;23;20008;-90
2023/04/08 10:38:42;;;;;;;13.30;9.93;;;13.00;99.90;;;;;;6188394;23;20089;-90
2023/04/08 10:41:12;;;;;;;12.73;9.68;;;13.10;99.90;;;;;;6137539;23;20031;-91
2023/04/08 10:43:46;;;;;;;11.48;8.57;;;13.20;99.90;;;;;;6138094;23;20028;-90
2023/04/08 10:46:11;;;;;;;10.40;9.00;;;13.20;99.90;;;;;;6138430;23;20429;-89
2023/04/08 10:48:37;;;;;;;12.98;9.18;;;13.30;99.90;;;;;;6138004;23;20072;-89
2023/04/08 10:51:04;;;;;;;11.43;8.95;;;13.40;99.90;;;;;;6186947;23;20424;-90
2023/04/08 10:53:38;;;;;;;9.98;8.73;;;13.40;99.90;;;;;;6161135;23;20013;-90
2023/04/08 10:56:17;;;;;;;9.80;8.35;;;13.50;99.90;;;;;;6186430;23;20008;-90
2023/04/08 10:58:55;;;;;;;11.48;9.90;;;13.60;99.90;;;;;;6189137;23;20001;-93
2023/04/08 11:01:21;;;;;;;12.85;8.85;;;13.60;99.90;;;;;;6162406;23;20009;-93
2023/04/08 11:03:48;;;;;;;9.40;8.30;;;13.60;99.90;;;;;;6187146;23;20096;-93
2023/04/08 11:06:14;;;;;;;14.43;9.80;;;13.70;99.90;;;;;;6165219;23;20016;-92
2023/04/08 11:08:40;;;;;;;11.95;8.60;;;13.80;99.90;;;;;;6180548;23;20040;-88
2023/04/08 11:11:10;;;;;;;12.35;8.30;;;13.80;99.90;;;;;;6161019;23;20009;-90
2023/04/08 11:13:41;;;;;;;10.93;8.88;;;13.90;99.90;;;;;;6185950;23;20004;-89
2023/04/08 11:16:08;;;;;;;9.57;8.57;;;14.00;99.90;;;;;;6187691;23;20082;-90
2023/04/08 11:18:36;;;;;;;10.38;7.45;;;14.10;99.90;;;;;;6185600;23;19997;-90
2023/04/08 11:21:03;;;;;;;12.68;7.80;;;14.20;99.90;;;;;;6161531;23;20340;-90
2023/04/08 11:23:28;;;;;;;9.90;7.78;;;14.30;99.90;;;;;;6173862;23;20001;-88
2023/04/08 11:25:55;;;;;;;10.30;8.50;;;14.30;99.90;;;;;;6179422;23;20020;-90
2023/04/08 11:28:21;;;;;;;9.07;7.65;;;14.40;99.90;;;;;;6202709;23;20009;-90
2023/04/08 11:30:48;;;;;;;8.30;6.60;;;14.50;99.90;;;;;;6204428;23;20073;-89
2023/04/08 11:33:14;;;;;;;8.85;6.28;;;14.60;99.90;;;;;;6181375;23;20016;-88
2023/04/08 11:35:42;;;;;;;8.95;6.65;;;14.60;99.90;;;;;;6179237;23;20013;-87
2023/04/08 11:38:11;;;;;;;9.55;6.20;;;14.70;99.90;;;;;;6200961;23;20005;-87
2023/04/08 11:40:37;;;;;;;12.70;6.57;;;14.70;99.90;;;;;;6164230;23;20009;-92
2023/04/08 11:43:11;;;;;;;10.68;6.60;;;14.80;99.90;;;;;;6162985;23;20040;-93
2023/04/08 11:45:40;;;;;;;9.45;6.30;;;14.80;99.90;;;;;;6187356;23;20005;-92
2023/04/08 11:48:14;;;;;;;10.38;7.40;;;14.90;99.90;;;;;;6165964;23;20016;-93
2023/04/08 11:50:41;;;;;;;9.35;6.47;;;14.90;99.90;;;;;;6193000;23;20005;-94
2023/04/08 11:53:21;;;;;;;9.15;7.00;;;14.90;99.90;;;;;;6192788;23;20000;-92
2023/04/08 11:55:54;;;;;;;8.97;5.87;;;15.00;99.90;;;;;;6191463;23;20005;-93
2023/04/08 11:58:21;;;;;;;8.35;5.97;;;15.00;99.90;;;;;;6190633;23;20289;-87
2023/04/08 12:00:48;;;;;;;9.48;6.25;;;15.00;99.90;;;;;;6191371;23;20301;-89
2023/04/08 12:03:14;;;;;;;8.57;6.03;;;15.00;99.90;;;;;;6192143;23;20008;-89
2023/04/08 12:05:53;;;;;;;8.77;6.65;;;15.00;99.90;;;;;;6192636;23;20392;-89
2023/04/08 12:08:23;;;;;;;10.18;7.10;;;15.00;99.90;;;;;;6206325;23;20005;-92
2023/04/08 12:10:49;;;;;;;8.85;6.05;;;15.10;99.90;;;;;;6191076;23;20008;-93
2023/04/08 12:13:15;;;;;;;9.45;6.45;;;15.10;99.90;;;;;;6191588;23;20005;-92
2023/04/08 12:15:41;;;;;;;7.68;6.30;;;15.00;99.90;;;;;;6165886;23;20032;-92
2023/04/08 12:18:06;;;;;;;10.10;6.50;;;15.10;99.90;;;;;;6190986;23;20008;-90
2023/04/08 12:20:32;;;;;;;8.65;5.97;;;15.10;99.90;;;;;;6191563;23;20631;-91
2023/04/08 12:22:58;;;;;;;7.57;5.28;;;15.10;99.90;;;;;;6170457;23;20009;-93
2023/04/08 12:25:23;;;;;;;8.02;5.70;;;15.20;99.90;;;;;;6191401;23;20009;-92
2023/04/08 12:27:49;;;;;;;8.45;5.75;;;15.30;99.90;;;;;;6195035;23;20015;-91
2023/04/08 12:30:17;;;;;;;9.13;6.25;;;15.30;99.90;;;;;;6192557;23;20096;-91
2023/04/08 12:32:46;;;;;;;8.23;5.50;;;15.40;99.90;;;;;;6191430;23;20008;-90
2023/04/08 12:35:12;;;;;;;10.48;6.15;;;15.40;99.90;;;;;;6190767;23;20004;-91
2023/04/08 12:37:37;;;;;;;8.85;6.18;;;15.50;99.90;;;;;;6190862;23;20432;-92
2023/04/08 12:40:04;;;;;;;11.13;6.47;;;15.50;99.90;;;;;;6166066;23;20064;-90
2023/04/08 12:42:30;;;;;;;8.27;6.30;;;15.60;99.90;;;;;;6192096;23;20439;-90
2023/04/08 12:44:56;;;;;;;9.45;6.22;;;15.60;99.90;;;;;;6192753;23;20001;-92
2023/04/08 12:47:22;;;;;;;7.93;5.97;;;15.70;99.90;;;;;;6192456;23;20055;-93